createdAt,value
2023-12-29T00:02:28.108Z,98692.70
2023-12-29T00:04:59.926Z,98688.38
2023-12-29T00:07:31.690Z,98685.25
2023-12-29T00:10:03.694Z,98687.20
2023-12-29T00:12:35.891Z,98681.40
2023-12-29T00:15:09.287Z,98684.21
2023-12-29T00:17:41.980Z,98676.94
2023-12-29T00:20:16.988Z,98682.06
2023-12-29T00:22:55.131Z,98690.61
2023-12-29T00:25:27.038Z,98687.81
2023-12-29T00:27:59.102Z,98679.58
2023-12-29T00:30:43.988Z,98674.63
2023-12-29T00:33:23.399Z,98662.40
2023-12-29T00:35:55.258Z,98661.52
2023-12-29T00:38:28.612Z,98662.84
2023-12-29T00:41:00.419Z,98660.20
2023-12-29T00:43:32.911Z,98659.75
2023-12-29T00:46:06.150Z,98654.38
2023-12-29T00:48:38.275Z,98659.00
2023-12-29T00:51:10.276Z,98659.78
2023-12-29T00:53:42.035Z,98660.88
2023-12-29T00:56:14.886Z,98660.39
2023-12-29T00:58:46.688Z,98660.64
2023-12-29T01:01:18.768Z,98658.83
2023-12-29T01:03:50.797Z,98657.27
2023-12-29T01:06:23.006Z,98661.75
2023-12-29T01:08:54.950Z,98658.58
2023-12-29T01:11:27.084Z,98656.74
2023-12-29T01:13:59.561Z,98653.52
2023-12-29T01:16:31.443Z,98653.42
2023-12-29T01:19:03.571Z,98653.50
2023-12-29T01:21:35.828Z,98644.25
2023-12-29T01:24:08.727Z,98638.08
2023-12-29T01:26:42.298Z,98637.52
2023-12-29T01:29:16.692Z,98639.73
2023-12-29T01:31:48.562Z,98639.72
2023-12-29T01:34:20.518Z,98633.38
2023-12-29T01:36:53.230Z,98629.66
2023-12-29T01:39:25.020Z,98628.77
2023-12-29T01:41:58.682Z,98627.84
2023-12-29T01:44:28.899Z,98633.19
2023-12-29T01:47:03.267Z,98628.05
2023-12-29T01:49:36.193Z,98625.16
2023-12-29T01:52:09.753Z,98624.20
2023-12-29T01:54:42.081Z,98620.27
2023-12-29T01:57:14.721Z,98617.46
2023-12-29T01:59:48.411Z,98608.92
2023-12-29T02:02:19.364Z,98602.55
2023-12-29T02:04:51.298Z,98601.06
2023-12-29T02:07:23.460Z,98606.11
2023-12-29T02:09:55.474Z,98598.98
2023-12-29T02:12:27.448Z,98597.65
2023-12-29T02:14:59.461Z,98587.98
2023-12-29T02:17:37.198Z,98585.08
2023-12-29T02:20:11.701Z,98587.85
2023-12-29T02:22:43.463Z,98592.90
2023-12-29T02:25:16.383Z,98592.42
2023-12-29T02:27:55.951Z,98586.14
2023-12-29T02:30:31.656Z,98584.36
2023-12-29T02:33:07.441Z,98582.91
2023-12-29T02:35:44.543Z,98585.91
2023-12-29T02:38:16.940Z,98589.61
2023-12-29T02:40:49.556Z,98581.17
2023-12-29T02:43:21.416Z,98578.08
2023-12-29T02:45:53.248Z,98584.69
2023-12-29T02:48:25.219Z,98577.23
2023-12-29T02:50:57.108Z,98570.77
2023-12-29T02:53:28.967Z,98566.77
2023-12-29T02:56:00.717Z,98571.16
2023-12-29T02:58:32.489Z,98569.92
2023-12-29T03:01:04.448Z,98562.41
2023-12-29T03:03:36.748Z,98554.34
2023-12-29T03:06:08.907Z,98554.48
2023-12-29T03:08:40.704Z,98550.53
2023-12-29T03:11:12.498Z,98550.25
2023-12-29T03:13:44.830Z,98547.74
2023-12-29T03:16:16.749Z,98543.95
2023-12-29T03:18:48.995Z,98539.53
2023-12-29T03:21:20.841Z,98540.85
2023-12-29T03:23:52.622Z,98538.84
2023-12-29T03:26:24.416Z,98536.77
2023-12-29T03:28:56.269Z,98540.27
2023-12-29T03:31:28.199Z,98545.64
2023-12-29T03:34:00.270Z,98545.74
2023-12-29T03:36:32.193Z,98542.26
2023-12-29T03:39:04.891Z,98536.61
2023-12-29T03:41:36.675Z,98543.53
2023-12-29T03:44:08.771Z,98542.52
2023-12-29T03:46:41.235Z,98541.56
2023-12-29T03:49:13.161Z,98536.49
2023-12-29T03:51:45.092Z,98527.35
2023-12-29T03:54:19.368Z,98525.13
2023-12-29T03:56:51.352Z,98523.97
2023-12-29T03:59:23.105Z,98525.44
2023-12-29T04:01:54.993Z,98525.02
2023-12-29T04:04:26.943Z,98523.71
2023-12-29T04:06:58.879Z,98525.05
2023-12-29T04:09:30.740Z,98532.05
2023-12-29T04:12:02.623Z,98528.77
2023-12-29T04:14:34.790Z,98534.54
2023-12-29T04:17:14.849Z,98534.77
2023-12-29T04:19:47.030Z,98528.06
2023-12-29T04:22:18.929Z,98537.70
2023-12-29T04:24:50.702Z,98541.37
2023-12-29T04:27:23.563Z,98532.13
2023-12-29T04:29:55.647Z,98532.27
2023-12-29T04:32:27.482Z,98525.34
2023-12-29T04:34:59.348Z,98519.80
2023-12-29T04:37:31.214Z,98518.75
2023-12-29T04:40:03.073Z,98516.45
2023-12-29T04:42:34.873Z,98515.66
2023-12-29T04:45:08.104Z,98518.50
2023-12-29T04:47:40.316Z,98520.89
2023-12-29T04:50:12.617Z,98511.75
2023-12-29T04:52:44.450Z,98516.91
2023-12-29T04:55:16.365Z,98516.36
2023-12-29T04:57:48.272Z,98519.08
2023-12-29T05:00:20.737Z,98509.28
2023-12-29T05:02:52.595Z,98501.98
2023-12-29T05:05:24.483Z,98498.41
2023-12-29T05:07:56.304Z,98496.59
2023-12-29T05:10:28.210Z,98498.80
2023-12-29T05:13:00.105Z,98495.98
2023-12-29T05:15:31.992Z,98500.98
2023-12-29T05:18:04.273Z,98511.48
2023-12-29T05:20:36.453Z,98509.73
2023-12-29T05:23:08.328Z,98506.95
2023-12-29T05:25:40.208Z,98507.04
2023-12-29T05:28:12.059Z,98511.30
2023-12-29T05:30:43.891Z,98515.74
2023-12-29T05:33:15.789Z,98513.71
2023-12-29T05:35:47.576Z,98507.86
2023-12-29T05:38:19.453Z,98503.61
2023-12-29T05:40:51.343Z,98500.26
2023-12-29T05:43:23.223Z,98491.14
2023-12-29T05:45:55.185Z,98492.45
2023-12-29T05:48:27.253Z,98491.20
2023-12-29T05:50:59.276Z,98492.07
2023-12-29T05:53:31.138Z,98496.88
2023-12-29T05:56:03.016Z,98500.99
2023-12-29T05:58:34.900Z,98503.20
2023-12-29T06:01:07.161Z,98494.85
2023-12-29T06:03:39.131Z,98481.36
2023-12-29T06:06:11.204Z,98490.66
2023-12-29T06:08:43.096Z,98497.09
2023-12-29T06:11:19.500Z,98503.92
2023-12-29T06:13:51.678Z,98502.31
2023-12-29T06:16:24.493Z,98508.02
2023-12-29T06:18:56.724Z,98506.69
2023-12-29T06:21:28.799Z,98498.84
2023-12-29T06:24:00.767Z,98486.78
2023-12-29T06:26:32.695Z,98481.69
2023-12-29T06:29:04.790Z,98478.65
2023-12-29T06:31:37.807Z,98485.45
2023-12-29T06:34:09.948Z,98489.92
2023-12-29T06:36:42.216Z,98490.39
2023-12-29T06:39:14.221Z,98485.95
2023-12-29T06:41:46.147Z,98478.55
2023-12-29T06:44:18.095Z,98477.44
2023-12-29T06:46:49.987Z,98474.44
2023-12-29T06:49:22.076Z,98469.17
2023-12-29T06:51:55.170Z,98473.95
2023-12-29T06:54:27.054Z,98484.53
2023-12-29T06:56:58.959Z,98485.16
2023-12-29T06:59:30.842Z,98488.92
2023-12-29T07:02:02.741Z,98489.45
2023-12-29T07:04:34.677Z,98487.09
2023-12-29T07:07:06.804Z,98489.23
2023-12-29T07:09:42.230Z,98492.88
2023-12-29T07:12:14.245Z,98495.33
2023-12-29T07:14:46.249Z,98504.95
2023-12-29T07:17:18.163Z,98512.75
2023-12-29T07:19:51.026Z,98509.52
2023-12-29T07:22:23.019Z,98516.04
2023-12-29T07:24:55.448Z,98512.16
2023-12-29T07:27:27.322Z,98514.41
2023-12-29T07:29:59.462Z,98511.39
2023-12-29T07:32:31.460Z,98506.40
2023-12-29T07:35:03.506Z,98503.88
2023-12-29T07:37:35.456Z,98503.30
2023-12-29T07:40:09.697Z,98507.84
2023-12-29T07:42:44.288Z,98505.95
2023-12-29T07:45:16.393Z,98506.17
2023-12-29T07:47:48.368Z,98499.59
2023-12-29T07:50:20.443Z,98497.52
2023-12-29T07:52:52.523Z,98500.06
2023-12-29T07:55:24.309Z,98496.94
2023-12-29T07:57:56.133Z,98500.95
2023-12-29T08:00:28.372Z,98502.17
2023-12-29T08:03:00.488Z,98501.19
2023-12-29T08:05:32.447Z,98500.16
2023-12-29T08:08:04.350Z,98501.73
2023-12-29T08:10:36.121Z,98498.90
2023-12-29T08:13:10.295Z,98500.41
2023-12-29T08:15:42.377Z,98496.02
2023-12-29T08:18:14.404Z,98498.55
2023-12-29T08:20:46.192Z,98503.17
2023-12-29T08:23:17.970Z,98511.20
2023-12-29T08:25:49.837Z,98514.38
2023-12-29T08:28:21.820Z,98506.07
2023-12-29T08:30:53.813Z,98509.60
2023-12-29T08:33:25.687Z,98512.48
2023-12-29T08:36:01.740Z,98519.16
2023-12-29T08:38:33.518Z,98516.89
2023-12-29T08:41:05.624Z,98517.77
2023-12-29T08:43:37.463Z,98512.27
2023-12-29T08:46:09.620Z,98516.39
2023-12-29T08:48:41.649Z,98517.04
2023-12-29T08:51:13.520Z,98524.88
2023-12-29T08:53:45.333Z,98519.46
2023-12-29T08:56:17.158Z,98523.92
2023-12-29T08:58:48.970Z,98522.70
2023-12-29T09:01:20.907Z,98520.69
2023-12-29T09:03:52.827Z,98517.41
2023-12-29T09:06:24.644Z,98517.86
2023-12-29T09:08:56.487Z,98510.77
2023-12-29T09:11:28.741Z,98513.08
2023-12-29T09:14:00.543Z,98512.17
2023-12-29T09:16:33.387Z,98512.88
2023-12-29T09:19:17.515Z,98514.34
2023-12-29T09:21:54.401Z,98511.13
2023-12-29T09:24:26.508Z,98510.20
2023-12-29T09:26:58.319Z,98510.35
2023-12-29T09:29:30.158Z,98510.50
2023-12-29T09:32:02.058Z,98509.27
2023-12-29T09:34:33.876Z,98500.33
2023-12-29T09:37:05.953Z,98493.10
2023-12-29T09:39:37.735Z,98485.65
2023-12-29T09:42:15.160Z,98481.50
2023-12-29T09:44:49.373Z,98479.79
2023-12-29T09:47:25.427Z,98481.78
2023-12-29T09:49:57.491Z,98477.75
2023-12-29T09:52:29.457Z,98475.79
2023-12-29T09:55:02.005Z,98468.95
2023-12-29T09:57:35.192Z,98461.99
2023-12-29T10:00:08.948Z,98466.20
2023-12-29T10:02:41.066Z,98462.90
2023-12-29T10:05:13.344Z,98465.27
2023-12-29T10:07:47.842Z,98475.26
2023-12-29T10:10:20.786Z,98474.21
2023-12-29T10:12:54.205Z,98480.51
2023-12-29T10:15:37.141Z,98475.58
2023-12-29T10:18:16.871Z,98474.42
2023-12-29T10:20:58.153Z,98460.84
2023-12-29T10:23:38.953Z,98457.80
2023-12-29T10:26:12.437Z,98451.70
2023-12-29T10:28:45.201Z,98451.36
2023-12-29T10:31:18.327Z,98454.56
2023-12-29T10:33:52.261Z,98455.63
2023-12-29T10:36:24.297Z,98456.92
2023-12-29T10:39:09.645Z,98457.86
2023-12-29T10:41:41.784Z,98458.32
2023-12-29T10:44:13.651Z,98449.38
2023-12-29T10:46:45.702Z,98446.69
2023-12-29T10:49:19.815Z,98443.84
2023-12-29T10:51:51.750Z,98446.38
2023-12-29T10:54:25.045Z,98436.85
2023-12-29T10:57:06.238Z,98431.59
2023-12-29T10:59:38.129Z,98426.76
2023-12-29T11:02:15.958Z,98420.65
2023-12-29T11:04:48.129Z,98416.41
2023-12-29T11:07:34.875Z,98422.69
2023-12-29T11:10:10.095Z,98426.25
2023-12-29T11:12:42.010Z,98427.02
2023-12-29T11:15:17.510Z,98428.92
2023-12-29T11:17:53.782Z,98422.41
2023-12-29T11:20:27.669Z,98418.85
2023-12-29T11:23:00.039Z,98427.70
2023-12-29T11:25:31.913Z,98424.73
2023-12-29T11:28:04.305Z,98426.08
2023-12-29T11:30:36.404Z,98428.76
2023-12-29T11:33:15.084Z,98428.59
2023-12-29T11:35:52.382Z,98428.21
2023-12-29T11:38:39.907Z,98423.71
2023-12-29T11:41:19.485Z,98422.33
2023-12-29T11:43:59.803Z,98418.77
2023-12-29T11:46:38.257Z,98417.78
2023-12-29T11:49:12.346Z,98415.40
2023-12-29T11:51:45.328Z,98415.68
2023-12-29T11:54:25.944Z,98414.23
2023-12-29T11:56:57.895Z,98416.16
2023-12-29T11:59:30.154Z,98410.68
2023-12-29T12:02:02.823Z,98414.77
2023-12-29T12:04:46.111Z,98422.88
2023-12-29T12:07:39.601Z,98421.23
2023-12-29T12:10:34.762Z,98413.47
2023-12-29T12:13:07.344Z,98414.77
2023-12-29T12:15:41.993Z,98418.43
2023-12-29T12:18:15.017Z,98417.33
2023-12-29T12:20:54.246Z,98411.98
2023-12-29T12:23:30.395Z,98409.82
2023-12-29T12:26:06.668Z,98410.79
2023-12-29T12:28:38.567Z,98416.04
2023-12-29T12:31:11.255Z,98406.16
2023-12-29T12:33:43.277Z,98401.62
2023-12-29T12:36:15.513Z,98401.96
2023-12-29T12:38:55.667Z,98396.46
2023-12-29T12:41:28.760Z,98391.88
2023-12-29T12:44:08.548Z,98394.77
2023-12-29T12:46:47.243Z,98396.66
2023-12-29T12:49:19.807Z,98395.09
2023-12-29T12:51:52.185Z,98395.73
2023-12-29T12:54:24.303Z,98393.81
2023-12-29T12:56:56.405Z,98395.58
2023-12-29T12:59:29.362Z,98394.00
2023-12-29T13:02:01.697Z,98398.15
2023-12-29T13:04:34.265Z,98402.27
2023-12-29T13:07:06.762Z,98398.78
2023-12-29T13:09:39.298Z,98399.36
2023-12-29T13:12:16.819Z,98393.53
2023-12-29T13:14:49.041Z,98399.54
2023-12-29T13:17:24.332Z,98399.05
2023-12-29T13:20:01.033Z,98399.27
2023-12-29T13:22:33.379Z,98401.22
2023-12-29T13:25:09.467Z,98407.23
2023-12-29T13:27:42.670Z,98401.58
2023-12-29T13:30:16.648Z,98398.08
2023-12-29T13:32:49.759Z,98391.32
2023-12-29T13:35:27.139Z,98391.73
2023-12-29T13:38:09.527Z,98394.80
2023-12-29T13:40:45.104Z,98394.81
2023-12-29T13:43:19.209Z,98393.37
2023-12-29T13:45:51.878Z,98393.91
2023-12-29T13:48:24.222Z,98390.14
2023-12-29T13:50:56.400Z,98391.41
2023-12-29T13:53:28.414Z,98396.39
2023-12-29T13:56:10.090Z,98393.81
2023-12-29T13:58:41.915Z,98396.80
2023-12-29T14:01:14.424Z,98396.21
2023-12-29T14:03:50.831Z,98399.65
2023-12-29T14:06:33.859Z,98405.36
2023-12-29T14:09:07.643Z,98411.30
2023-12-29T14:11:37.992Z,98406.56
2023-12-29T14:17:42.074Z,98412.41
2023-12-29T14:20:34.632Z,98411.04
2023-12-29T14:23:07.977Z,98416.14
2023-12-29T14:25:40.059Z,98422.71
2023-12-29T14:28:20.510Z,98423.88
2023-12-29T14:31:03.003Z,98435.02
2023-12-29T14:33:35.093Z,98433.55
2023-12-29T14:36:07.741Z,98436.86
2023-12-29T14:38:39.499Z,98436.38
2023-12-29T14:41:11.266Z,98437.99
2023-12-29T14:43:43.049Z,98438.40
2023-12-29T14:46:15.931Z,98437.52
2023-12-29T14:48:47.994Z,98443.66
2023-12-29T14:51:19.833Z,98450.42
2023-12-29T14:53:52.955Z,98456.06
2023-12-29T14:56:24.789Z,98458.95
2023-12-29T14:58:56.612Z,98463.83
2023-12-29T15:01:29.104Z,98463.04
2023-12-29T15:04:01.104Z,98460.07
2023-12-29T15:06:32.999Z,98455.43
2023-12-29T15:09:05.068Z,98458.85
2023-12-29T15:11:38.037Z,98453.11
2023-12-29T15:14:09.803Z,98454.12
2023-12-29T15:16:42.138Z,98448.58
2023-12-29T15:19:14.166Z,98450.08
2023-12-29T15:21:45.987Z,98445.08
2023-12-29T15:24:18.481Z,98442.84
2023-12-29T15:26:50.371Z,98441.95
2023-12-29T15:29:22.374Z,98445.04
2023-12-29T15:31:54.154Z,98442.36
2023-12-29T15:34:26.265Z,98446.07
2023-12-29T15:36:58.350Z,98450.20
2023-12-29T15:39:30.125Z,98446.09
2023-12-29T15:42:01.847Z,98443.91
2023-12-29T15:44:34.507Z,98444.61
2023-12-29T15:47:06.789Z,98446.38
2023-12-29T15:49:40.199Z,98449.84
2023-12-29T15:52:12.102Z,98445.02
2023-12-29T15:54:44.242Z,98437.16
2023-12-29T15:57:16.022Z,98442.25
2023-12-29T15:59:47.973Z,98434.08
2023-12-29T16:02:21.990Z,98432.75
2023-12-29T16:04:53.852Z,98432.94
2023-12-29T16:07:25.790Z,98432.69
2023-12-29T16:09:57.627Z,98431.91
2023-12-29T16:12:29.378Z,98428.76
2023-12-29T16:15:01.181Z,98434.05
2023-12-29T16:17:33.031Z,98430.60
2023-12-29T16:20:05.137Z,98423.77
2023-12-29T16:22:37.200Z,98428.03
2023-12-29T16:25:10.848Z,98423.87
2023-12-29T16:27:43.202Z,98421.71
2023-12-29T16:30:15.883Z,98420.50
2023-12-29T16:32:47.785Z,98415.93
2023-12-29T16:35:19.795Z,98410.80
2023-12-29T16:37:53.975Z,98407.96
2023-12-29T16:40:25.845Z,98410.48
2023-12-29T16:42:57.809Z,98414.92
2023-12-29T16:45:29.790Z,98412.09
2023-12-29T16:48:04.656Z,98419.33
2023-12-29T16:50:36.566Z,98408.69
2023-12-29T16:53:08.490Z,98405.03
2023-12-29T16:55:40.392Z,98397.69
2023-12-29T16:58:12.157Z,98402.55
2023-12-29T17:00:44.522Z,98401.04
2023-12-29T17:03:16.780Z,98399.67
2023-12-29T17:05:49.138Z,98392.31
2023-12-29T17:08:20.940Z,98391.16
2023-12-29T17:10:53.325Z,98390.73
2023-12-29T17:13:25.207Z,98389.63
2023-12-29T17:15:57.012Z,98388.67
2023-12-29T17:18:30.827Z,98391.23
2023-12-29T17:21:04.067Z,98386.86
2023-12-29T17:23:35.866Z,98393.14
2023-12-29T17:26:13.090Z,98398.29
2023-12-29T17:28:44.922Z,98401.25
2023-12-29T17:31:16.789Z,98403.55
2023-12-29T17:33:49.034Z,98412.45
2023-12-29T17:36:21.004Z,98407.43
2023-12-29T17:38:53.052Z,98406.06
2023-12-29T17:41:26.404Z,98408.98
2023-12-29T17:43:58.244Z,98409.26
2023-12-29T17:46:30.647Z,98407.06
2023-12-29T17:49:04.607Z,98406.80
2023-12-29T17:51:37.259Z,98405.94
2023-12-29T17:54:09.024Z,98418.13
2023-12-29T17:56:40.956Z,98411.48
2023-12-29T17:59:12.790Z,98417.37
2023-12-29T18:01:45.864Z,98422.67
2023-12-29T18:04:18.082Z,98421.71
2023-12-29T18:06:56.604Z,98421.19
2023-12-29T18:09:38.993Z,98424.36
2023-12-29T18:12:13.006Z,98428.56
2023-12-29T18:14:46.634Z,98430.52
2023-12-29T18:17:16.984Z,98425.14
2023-12-29T18:19:50.095Z,98425.46
2023-12-29T18:22:22.069Z,98420.31
2023-12-29T18:24:53.994Z,98422.20
2023-12-29T18:27:28.648Z,98423.60
2023-12-29T18:30:00.753Z,98426.20
2023-12-29T18:32:32.649Z,98426.19
2023-12-29T18:35:06.137Z,98427.68
2023-12-29T18:37:36.626Z,98429.42
2023-12-29T18:40:10.226Z,98429.91
2023-12-29T18:42:40.564Z,98427.29
2023-12-29T18:45:13.564Z,98425.89
2023-12-29T18:47:45.356Z,98425.51
2023-12-29T18:50:17.899Z,98429.77
2023-12-29T18:52:51.576Z,98428.23
2023-12-29T18:55:23.466Z,98434.45
2023-12-29T18:57:55.267Z,98429.00
2023-12-29T19:00:27.249Z,98426.08
2023-12-29T19:02:59.382Z,98426.09
2023-12-29T19:05:31.577Z,98431.53
2023-12-29T19:08:03.410Z,98420.29
2023-12-29T19:10:36.080Z,98412.92
2023-12-29T19:13:08.072Z,98404.42
2023-12-29T19:15:40.111Z,98406.41
2023-12-29T19:18:12.065Z,98414.86
2023-12-29T19:20:44.375Z,98411.50
2023-12-29T19:23:16.228Z,98414.46
2023-12-29T19:25:48.014Z,98408.34
2023-12-29T19:28:19.884Z,98407.95
2023-12-29T19:30:52.844Z,98403.33
2023-12-29T19:33:24.854Z,98402.13
2023-12-29T19:35:56.771Z,98406.09
2023-12-29T19:38:28.527Z,98396.25
2023-12-29T19:41:01.713Z,98391.94
2023-12-29T19:43:34.829Z,98398.51
2023-12-29T19:46:07.286Z,98395.35
2023-12-29T19:48:40.014Z,98403.77
2023-12-29T19:51:12.426Z,98401.83
2023-12-29T19:53:44.278Z,98404.28
2023-12-29T19:56:24.920Z,98402.66
2023-12-29T19:58:57.402Z,98398.62
2023-12-29T20:01:36.059Z,98401.48
2023-12-29T20:04:13.376Z,98399.94
2023-12-29T20:06:45.291Z,98405.77
2023-12-29T20:09:17.092Z,98405.39
2023-12-29T20:11:49.018Z,98404.23
2023-12-29T20:14:23.329Z,98399.40
2023-12-29T20:16:55.196Z,98401.21
2023-12-29T20:19:27.143Z,98401.36
2023-12-29T20:21:59.141Z,98399.46
2023-12-29T20:24:31.053Z,98399.60
2023-12-29T20:27:03.254Z,98392.52
2023-12-29T20:29:35.121Z,98389.67
2023-12-29T20:32:08.123Z,98387.46
2023-12-29T20:34:40.109Z,98383.30
2023-12-29T20:37:12.176Z,98380.25
2023-12-29T20:39:44.198Z,98382.86
2023-12-29T20:42:16.006Z,98386.35
2023-12-29T20:44:47.756Z,98380.46
2023-12-29T20:47:19.637Z,98387.48
2023-12-29T20:49:51.871Z,98386.73
2023-12-29T20:52:24.021Z,98386.02
2023-12-29T20:54:56.214Z,98383.71
2023-12-29T20:57:28.337Z,98384.84
2023-12-29T21:00:01.412Z,98389.07
2023-12-29T21:02:33.497Z,98386.43
2023-12-29T21:05:09.918Z,98388.52
2023-12-29T21:07:42.936Z,98390.65
2023-12-29T21:10:14.914Z,98388.38
2023-12-29T21:12:46.824Z,98392.19
2023-12-29T21:15:19.275Z,98391.79
2023-12-29T21:17:51.426Z,98389.55
2023-12-29T21:20:23.246Z,98392.89
2023-12-29T21:22:55.065Z,98393.80
2023-12-29T21:25:26.984Z,98382.34
2023-12-29T21:27:58.821Z,98383.80
2023-12-29T21:30:30.647Z,98385.98
2023-12-29T21:33:02.771Z,98387.95
2023-12-29T21:35:34.694Z,98390.88
2023-12-29T21:38:07.197Z,98397.18
2023-12-29T21:40:39.372Z,98399.35
2023-12-29T21:43:11.250Z,98398.51
2023-12-29T21:45:43.329Z,98394.74
2023-12-29T21:48:19.573Z,98390.84
2023-12-29T21:50:51.410Z,98389.94
2023-12-29T21:53:24.222Z,98390.42
2023-12-29T21:55:57.837Z,98385.92
2023-12-29T21:58:28.262Z,98384.20
2023-12-29T22:01:20.904Z,98376.45
2023-12-29T22:03:52.929Z,98374.73
2023-12-29T22:06:24.988Z,98365.24
2023-12-29T22:08:56.808Z,98360.26
2023-12-29T22:11:28.765Z,98360.19
2023-12-29T22:14:01.318Z,98355.72
2023-12-29T22:16:33.386Z,98359.86
2023-12-29T22:19:06.762Z,98365.18
2023-12-29T22:21:38.759Z,98364.19
2023-12-29T22:24:11.580Z,98362.45
2023-12-29T22:26:43.382Z,98364.55
2023-12-29T22:29:15.259Z,98359.61
2023-12-29T22:31:49.952Z,98359.15
2023-12-29T22:34:22.431Z,98357.46
2023-12-29T22:36:54.499Z,98351.52
2023-12-29T22:39:26.498Z,98348.80
2023-12-29T22:41:58.800Z,98360.31
2023-12-29T22:44:30.776Z,98362.70
2023-12-29T22:47:03.991Z,98370.40
2023-12-29T22:49:37.399Z,98361.27
2023-12-29T22:52:10.349Z,98360.75
2023-12-29T22:54:42.351Z,98363.08
2023-12-29T22:57:15.207Z,98360.46
2023-12-29T22:59:48.147Z,98360.19
2023-12-29T23:02:20.248Z,98360.34
2023-12-29T23:04:52.353Z,98361.30
2023-12-29T23:07:24.250Z,98351.23
2023-12-29T23:09:56.223Z,98340.35
2023-12-29T23:12:27.968Z,98341.88
2023-12-29T23:14:59.796Z,98333.70
2023-12-29T23:17:31.596Z,98334.20
2023-12-29T23:20:03.536Z,98331.79
2023-12-29T23:22:35.355Z,98333.89
2023-12-29T23:25:09.012Z,98325.23
2023-12-29T23:27:39.379Z,98324.35
2023-12-29T23:30:13.376Z,98323.66
2023-12-29T23:32:45.192Z,98321.44
2023-12-29T23:35:23.875Z,98314.98
2023-12-29T23:37:56.865Z,98314.67
2023-12-29T23:40:29.085Z,98316.83
2023-12-29T23:43:01.304Z,98312.54
2023-12-29T23:45:33.706Z,98314.41
2023-12-29T23:48:05.729Z,98316.09
2023-12-29T23:50:37.718Z,98314.58
2023-12-29T23:53:09.526Z,98314.76
2023-12-29T23:55:41.337Z,98314.20
2023-12-29T23:58:13.197Z,98317.19
